sensor_id;sensor_type;location;lat;lon;timestamp;pressure;altitude;pressure_sealevel;temperature;humidity
58877;BME280;44659;47.002;9.536;2023-11-21T00:01:57;95445.44;;;5.39;100.00
58877;BME280;44659;47.002;9.536;2023-11-21T00:04:23;95444.34;;;5.63;100.00
58877;BME280;44659;47.002;9.536;2023-11-21T00:06:50;95442.09;;;5.46;100.00
58877;BME280;44659;47.002;9.536;2023-11-21T00:09:16;95435.66;;;5.33;100.00
58877;BME280;44659;47.002;9.536;2023-11-21T00:11:43;95442.44;;;5.28;100.00
58877;BME280;44659;47.002;9.536;2023-11-21T00:14:10;95447.34;;;5.60;100.00
58877;BME280;44659;47.002;9.536;2023-11-21T00:16:36;95452.66;;;5.67;100.00
58877;BME280;44659;47.002;9.536;2023-11-21T00:19:02;95453.22;;;5.62;100.00
58877;BME280;44659;47.002;9.536;2023-11-21T00:21:28;95443.63;;;5.40;100.00
58877;BME280;44659;47.002;9.536;2023-11-21T00:23:53;95439.00;;;5.42;100.00
58877;BME280;44659;47.002;9.536;2023-11-21T00:26:19;95438.19;;;5.41;100.00
58877;BME280;44659;47.002;9.536;2023-11-21T00:28:45;95444.81;;;5.52;100.00
58877;BME280;44659;47.002;9.536;2023-11-21T00:31:11;95442.19;;;5.52;100.00
58877;BME280;44659;47.002;9.536;2023-11-21T00:33:36;95447.97;;;5.62;100.00
58877;BME280;44659;47.002;9.536;2023-11-21T00:36:02;95451.50;;;5.70;100.00
58877;BME280;44659;47.002;9.536;2023-11-21T00:38:28;95439.09;;;5.78;100.00
58877;BME280;44659;47.002;9.536;2023-11-21T00:40:54;95442.09;;;5.60;100.00
58877;BME280;44659;47.002;9.536;2023-11-21T00:43:22;95439.47;;;5.60;100.00
58877;BME280;44659;47.002;9.536;2023-11-21T00:45:48;95438.84;;;5.58;100.00
58877;BME280;44659;47.002;9.536;2023-11-21T00:48:17;95428.13;;;5.45;100.00
58877;BME280;44659;47.002;9.536;2023-11-21T00:50:44;95428.78;;;5.47;100.00
58877;BME280;44659;47.002;9.536;2023-11-21T00:53:09;95436.75;;;5.54;100.00
58877;BME280;44659;47.002;9.536;2023-11-21T00:55:37;95430.59;;;5.61;100.00
58877;BME280;44659;47.002;9.536;2023-11-21T00:58:05;95425.16;;;5.33;100.00
58877;BME280;44659;47.002;9.536;2023-11-21T01:00:33;95417.81;;;5.29;100.00
58877;BME280;44659;47.002;9.536;2023-11-21T01:02:59;95420.34;;;5.07;100.00
58877;BME280;44659;47.002;9.536;2023-11-21T01:05:25;95421.25;;;5.14;100.00
58877;BME280;44659;47.002;9.536;2023-11-21T01:07:52;95422.34;;;5.20;100.00
58877;BME280;44659;47.002;9.536;2023-11-21T01:10:18;95432.94;;;5.41;100.00
58877;BME280;44659;47.002;9.536;2023-11-21T01:12:44;95433.22;;;5.47;100.00
58877;BME280;44659;47.002;9.536;2023-11-21T01:15:09;95430.59;;;5.47;100.00
58877;BME280;44659;47.002;9.536;2023-11-21T01:17:37;95419.53;;;5.21;100.00
58877;BME280;44659;47.002;9.536;2023-11-21T01:20:04;95423.28;;;4.89;100.00
58877;BME280;44659;47.002;9.536;2023-11-21T01:22:38;95422.88;;;4.77;100.00
58877;BME280;44659;47.002;9.536;2023-11-21T01:25:04;95429.88;;;5.00;100.00
58877;BME280;44659;47.002;9.536;2023-11-21T01:27:33;95443.44;;;4.66;100.00
58877;BME280;44659;47.002;9.536;2023-11-21T01:30:00;95432.66;;;4.84;100.00
58877;BME280;44659;47.002;9.536;2023-11-21T01:32:25;95431.69;;;4.85;100.00
58877;BME280;44659;47.002;9.536;2023-11-21T01:34:51;95417.63;;;4.77;100.00
58877;BME280;44659;47.002;9.536;2023-11-21T01:37:17;95417.94;;;4.82;100.00
58877;BME280;44659;47.002;9.536;2023-11-21T01:39:43;95417.41;;;4.87;100.00
58877;BME280;44659;47.002;9.536;2023-11-21T01:42:09;95411.38;;;4.78;100.00
58877;BME280;44659;47.002;9.536;2023-11-21T01:44:36;95424.72;;;4.92;100.00
58877;BME280;44659;47.002;9.536;2023-11-21T01:47:02;95425.59;;;4.84;100.00
58877;BME280;44659;47.002;9.536;2023-11-21T01:49:34;95426.38;;;4.70;100.00
58877;BME280;44659;47.002;9.536;2023-11-21T01:51:59;95418.03;;;4.66;100.00
58877;BME280;44659;47.002;9.536;2023-11-21T01:54:25;95417.59;;;4.63;100.00
58877;BME280;44659;47.002;9.536;2023-11-21T01:56:52;95420.59;;;4.28;100.00
58877;BME280;44659;47.002;9.536;2023-11-21T01:59:21;95420.06;;;4.56;100.00
58877;BME280;44659;47.002;9.536;2023-11-21T02:01:48;95410.56;;;4.78;100.00
58877;BME280;44659;47.002;9.536;2023-11-21T02:04:15;95404.28;;;4.64;100.00
58877;BME280;44659;47.002;9.536;2023-11-21T02:06:41;95407.56;;;4.89;100.00
58877;BME280;44659;47.002;9.536;2023-11-21T02:09:07;95410.03;;;5.06;100.00
58877;BME280;44659;47.002;9.536;2023-11-21T02:11:34;95411.72;;;4.98;100.00
58877;BME280;44659;47.002;9.536;2023-11-21T02:14:00;95417.72;;;5.22;100.00
58877;BME280;44659;47.002;9.536;2023-11-21T02:16:26;95405.88;;;5.11;100.00
58877;BME280;44659;47.002;9.536;2023-11-21T02:18:53;95403.91;;;5.13;100.00
58877;BME280;44659;47.002;9.536;2023-11-21T02:21:18;95403.91;;;5.28;100.00
58877;BME280;44659;47.002;9.536;2023-11-21T02:23:45;95402.63;;;5.39;100.00
58877;BME280;44659;47.002;9.536;2023-11-21T02:26:12;95406.44;;;5.21;100.00
58877;BME280;44659;47.002;9.536;2023-11-21T02:28:39;95400.47;;;5.28;100.00
58877;BME280;44659;47.002;9.536;2023-11-21T02:31:05;95391.03;;;5.18;100.00
58877;BME280;44659;47.002;9.536;2023-11-21T02:33:33;95384.78;;;5.05;100.00
58877;BME280;44659;47.002;9.536;2023-11-21T02:36:00;95379.91;;;4.87;100.00
58877;BME280;44659;47.002;9.536;2023-11-21T02:38:26;95373.44;;;4.74;100.00
58877;BME280;44659;47.002;9.536;2023-11-21T02:40:52;95378.63;;;4.97;100.00
58877;BME280;44659;47.002;9.536;2023-11-21T02:43:17;95383.97;;;5.04;100.00
58877;BME280;44659;47.002;9.536;2023-11-21T02:45:43;95374.75;;;5.08;100.00
58877;BME280;44659;47.002;9.536;2023-11-21T02:48:09;95363.72;;;4.98;100.00
58877;BME280;44659;47.002;9.536;2023-11-21T02:50:35;95366.34;;;4.98;100.00
58877;BME280;44659;47.002;9.536;2023-11-21T02:53:01;95365.38;;;4.99;100.00
58877;BME280;44659;47.002;9.536;2023-11-21T02:55:27;95368.16;;;4.97;100.00
58877;BME280;44659;47.002;9.536;2023-11-21T02:57:54;95369.28;;;4.80;100.00
58877;BME280;44659;47.002;9.536;2023-11-21T03:00:21;95375.16;;;4.82;100.00
58877;BME280;44659;47.002;9.536;2023-11-21T03:02:49;95368.91;;;4.68;100.00
58877;BME280;44659;47.002;9.536;2023-11-21T03:05:15;95358.56;;;4.52;100.00
58877;BME280;44659;47.002;9.536;2023-11-21T03:07:41;95363.09;;;4.58;100.00
58877;BME280;44659;47.002;9.536;2023-11-21T03:10:07;95364.16;;;4.49;100.00
58877;BME280;44659;47.002;9.536;2023-11-21T03:12:37;95357.97;;;4.65;100.00
58877;BME280;44659;47.002;9.536;2023-11-21T03:15:07;95352.91;;;4.63;100.00
58877;BME280;44659;47.002;9.536;2023-11-21T03:17:33;95369.03;;;4.52;100.00
58877;BME280;44659;47.002;9.536;2023-11-21T03:20:00;95364.16;;;4.26;100.00
58877;BME280;44659;47.002;9.536;2023-11-21T03:22:26;95369.22;;;4.27;100.00
58877;BME280;44659;47.002;9.536;2023-11-21T03:24:52;95356.84;;;4.44;100.00
58877;BME280;44659;47.002;9.536;2023-11-21T03:27:18;95368.31;;;4.58;100.00
58877;BME280;44659;47.002;9.536;2023-11-21T03:29:44;95369.38;;;4.72;100.00
58877;BME280;44659;47.002;9.536;2023-11-21T03:32:12;95369.75;;;4.84;100.00
58877;BME280;44659;47.002;9.536;2023-11-21T03:34:53;95365.16;;;4.86;100.00
58877;BME280;44659;47.002;9.536;2023-11-21T03:37:20;95376.34;;;4.79;100.00
58877;BME280;44659;47.002;9.536;2023-11-21T03:39:46;95368.41;;;4.88;100.00
58877;BME280;44659;47.002;9.536;2023-11-21T03:42:12;95375.16;;;4.82;100.00
58877;BME280;44659;47.002;9.536;2023-11-21T03:44:38;95376.00;;;4.82;100.00
58877;BME280;44659;47.002;9.536;2023-11-21T03:47:03;95371.50;;;4.91;100.00
58877;BME280;44659;47.002;9.536;2023-11-21T03:49:30;95367.34;;;4.97;100.00
58877;BME280;44659;47.002;9.536;2023-11-21T03:51:56;95367.91;;;5.07;100.00
58877;BME280;44659;47.002;9.536;2023-11-21T03:54:22;95371.03;;;5.02;100.00
58877;BME280;44659;47.002;9.536;2023-11-21T03:56:47;95363.66;;;4.68;100.00
58877;BME280;44659;47.002;9.536;2023-11-21T03:59:13;95363.53;;;4.85;100.00
58877;BME280;44659;47.002;9.536;2023-11-21T04:01:39;95368.25;;;5.04;100.00
58877;BME280;44659;47.002;9.536;2023-11-21T04:04:04;95358.22;;;5.08;100.00
58877;BME280;44659;47.002;9.536;2023-11-21T04:06:30;95375.41;;;5.10;100.00
58877;BME280;44659;47.002;9.536;2023-11-21T04:08:58;95361.41;;;5.18;100.00
58877;BME280;44659;47.002;9.536;2023-11-21T04:11:24;95370.69;;;5.06;100.00
58877;BME280;44659;47.002;9.536;2023-11-21T04:13:50;95367.34;;;4.97;100.00
58877;BME280;44659;47.002;9.536;2023-11-21T04:16:16;95369.91;;;5.05;100.00
58877;BME280;44659;47.002;9.536;2023-11-21T04:18:41;95373.22;;;5.14;100.00
58877;BME280;44659;47.002;9.536;2023-11-21T04:21:07;95368.44;;;5.17;100.00
58877;BME280;44659;47.002;9.536;2023-11-21T04:23:33;95379.91;;;5.16;100.00
58877;BME280;44659;47.002;9.536;2023-11-21T04:26:00;95372.84;;;5.17;100.00
58877;BME280;44659;47.002;9.536;2023-11-21T04:28:28;95372.97;;;5.24;100.00
58877;BME280;44659;47.002;9.536;2023-11-21T04:30:53;95376.31;;;5.17;100.00
58877;BME280;44659;47.002;9.536;2023-11-21T04:33:19;95382.00;;;5.06;100.00
58877;BME280;44659;47.002;9.536;2023-11-21T04:35:45;95380.56;;;5.18;100.00
58877;BME280;44659;47.002;9.536;2023-11-21T04:38:11;95377.50;;;5.30;100.00
58877;BME280;44659;47.002;9.536;2023-11-21T04:40:37;95385.09;;;5.39;100.00
58877;BME280;44659;47.002;9.536;2023-11-21T04:43:02;95390.53;;;5.38;100.00
58877;BME280;44659;47.002;9.536;2023-11-21T04:45:31;95389.88;;;5.36;100.00
58877;BME280;44659;47.002;9.536;2023-11-21T04:47:57;95395.63;;;5.01;100.00
58877;BME280;44659;47.002;9.536;2023-11-21T04:50:22;95402.50;;;5.02;100.00
58877;BME280;44659;47.002;9.536;2023-11-21T04:52:48;95406.81;;;5.33;100.00
58877;BME280;44659;47.002;9.536;2023-11-21T04:55:13;95414.75;;;5.40;100.00
58877;BME280;44659;47.002;9.536;2023-11-21T04:57:40;95421.06;;;5.31;100.00
58877;BME280;44659;47.002;9.536;2023-11-21T05:00:08;95413.03;;;5.32;100.00
58877;BME280;44659;47.002;9.536;2023-11-21T05:02:34;95418.91;;;5.19;100.00
58877;BME280;44659;47.002;9.536;2023-11-21T05:05:01;95414.56;;;5.27;100.00
58877;BME280;44659;47.002;9.536;2023-11-21T05:07:27;95416.66;;;5.31;100.00
58877;BME280;44659;47.002;9.536;2023-11-21T05:09:55;95421.19;;;5.37;100.00
58877;BME280;44659;47.002;9.536;2023-11-21T05:12:24;95421.75;;;5.48;100.00
58877;BME280;44659;47.002;9.536;2023-11-21T05:14:53;95425.97;;;5.34;100.00
58877;BME280;44659;47.002;9.536;2023-11-21T05:17:18;95428.31;;;5.29;100.00
58877;BME280;44659;47.002;9.536;2023-11-21T05:19:44;95428.13;;;5.45;100.00
58877;BME280;44659;47.002;9.536;2023-11-21T05:22:11;95429.41;;;5.49;100.00
58877;BME280;44659;47.002;9.536;2023-11-21T05:24:37;95426.44;;;5.37;100.00
58877;BME280;44659;47.002;9.536;2023-11-21T05:27:06;95437.28;;;5.49;100.00
58877;BME280;44659;47.002;9.536;2023-11-21T05:29:31;95437.56;;;5.54;100.00
58877;BME280;44659;47.002;9.536;2023-11-21T05:31:57;95445.59;;;5.53;100.00
58877;BME280;44659;47.002;9.536;2023-11-21T05:34:22;95447.34;;;5.60;100.00
58877;BME280;44659;47.002;9.536;2023-11-21T05:36:50;95455.47;;;5.66;100.00
58877;BME280;44659;47.002;9.536;2023-11-21T05:39:16;95445.69;;;5.59;100.00
58877;BME280;44659;47.002;9.536;2023-11-21T05:41:46;95453.75;;;5.73;100.00
58877;BME280;44659;47.002;9.536;2023-11-21T05:44:12;95452.31;;;5.70;100.00
58877;BME280;44659;47.002;9.536;2023-11-21T05:46:40;95455.56;;;5.72;100.00
58877;BME280;44659;47.002;9.536;2023-11-21T05:49:06;95459.81;;;5.73;100.00
58877;BME280;44659;47.002;9.536;2023-11-21T05:51:33;95455.56;;;5.57;100.00
58877;BME280;44659;47.002;9.536;2023-11-21T05:53:59;95458.81;;;5.59;100.00
58877;BME280;44659;47.002;9.536;2023-11-21T05:56:24;95455.56;;;5.42;100.00
58877;BME280;44659;47.002;9.536;2023-11-21T05:58:50;95460.16;;;5.26;100.00
58877;BME280;44659;47.002;9.536;2023-11-21T06:01:16;95463.19;;;5.14;100.00
58877;BME280;44659;47.002;9.536;2023-11-21T06:03:42;95459.03;;;5.05;100.00
58877;BME280;44659;47.002;9.536;2023-11-21T06:06:08;95469.63;;;5.27;100.00
58877;BME280;44659;47.002;9.536;2023-11-21T06:08:34;95468.44;;;5.14;100.00
58877;BME280;44659;47.002;9.536;2023-11-21T06:11:00;95477.50;;;5.27;100.00
58877;BME280;44659;47.002;9.536;2023-11-21T06:13:26;95476.81;;;4.95;100.00
58877;BME280;44659;47.002;9.536;2023-11-21T06:15:52;95478.34;;;5.04;100.00
58877;BME280;44659;47.002;9.536;2023-11-21T06:18:17;95481.91;;;5.11;100.00
58877;BME280;44659;47.002;9.536;2023-11-21T06:20:47;95480.69;;;4.99;100.00
58877;BME280;44659;47.002;9.536;2023-11-21T06:23:13;95480.91;;;5.12;100.00
58877;BME280;44659;47.002;9.536;2023-11-21T06:25:39;95489.63;;;5.28;100.00
58877;BME280;44659;47.002;9.536;2023-11-21T06:28:06;95491.25;;;4.91;100.00
58877;BME280;44659;47.002;9.536;2023-11-21T06:30:32;95489.78;;;5.11;100.00
58877;BME280;44659;47.002;9.536;2023-11-21T06:32:57;95489.41;;;5.14;100.00
58877;BME280;44659;47.002;9.536;2023-11-21T06:35:23;95485.44;;;5.18;100.00
58877;BME280;44659;47.002;9.536;2023-11-21T06:37:49;95497.97;;;5.31;100.00
58877;BME280;44659;47.002;9.536;2023-11-21T06:40:15;95487.50;;;5.46;100.00
58877;BME280;44659;47.002;9.536;2023-11-21T06:42:41;95494.00;;;5.50;100.00
58877;BME280;44659;47.002;9.536;2023-11-21T06:45:07;95502.59;;;5.59;100.00
58877;BME280;44659;47.002;9.536;2023-11-21T06:47:36;95503.78;;;5.56;100.00
58877;BME280;44659;47.002;9.536;2023-11-21T06:50:03;95498.63;;;5.63;100.00
58877;BME280;44659;47.002;9.536;2023-11-21T06:52:29;95501.72;;;5.67;100.00
58877;BME280;44659;47.002;9.536;2023-11-21T06:54:55;95497.75;;;5.71;100.00
58877;BME280;44659;47.002;9.536;2023-11-21T06:57:22;95506.16;;;5.81;100.00
58877;BME280;44659;47.002;9.536;2023-11-21T06:59:48;95506.78;;;5.83;100.00
58877;BME280;44659;47.002;9.536;2023-11-21T07:02:13;95506.06;;;5.89;100.00
58877;BME280;44659;47.002;9.536;2023-11-21T07:04:39;95515.94;;;5.87;100.00
58877;BME280;44659;47.002;9.536;2023-11-21T07:07:06;95513.72;;;5.99;100.00
58877;BME280;44659;47.002;9.536;2023-11-21T07:09:35;95514.34;;;6.01;100.00
58877;BME280;44659;47.002;9.536;2023-11-21T07:12:00;95516.69;;;6.11;100.00
58877;BME280;44659;47.002;9.536;2023-11-21T07:14:29;95513.69;;;6.14;100.00
58877;BME280;44659;47.002;9.536;2023-11-21T07:16:55;95506.44;;;6.16;100.00
58877;BME280;44659;47.002;9.536;2023-11-21T07:19:22;95503.09;;;6.22;100.00
58877;BME280;44659;47.002;9.536;2023-11-21T07:21:47;95511.53;;;6.17;100.00
58877;BME280;44659;47.002;9.536;2023-11-21T07:24:16;95508.16;;;6.24;100.00
58877;BME280;44659;47.002;9.536;2023-11-21T07:26:41;95504.81;;;6.30;100.00
58877;BME280;44659;47.002;9.536;2023-11-21T07:29:08;95507.09;;;6.33;100.00
58877;BME280;44659;47.002;9.536;2023-11-21T07:31:34;95508.63;;;6.27;100.00
58877;BME280;44659;47.002;9.536;2023-11-21T07:34:00;95498.13;;;6.27;100.00
58877;BME280;44659;47.002;9.536;2023-11-21T07:36:26;95498.81;;;6.36;100.00
58877;BME280;44659;47.002;9.536;2023-11-21T07:38:52;95510.41;;;6.41;100.00
58877;BME280;44659;47.002;9.536;2023-11-21T07:41:18;95501.06;;;6.54;100.00
58877;BME280;44659;47.002;9.536;2023-11-21T07:43:45;95497.50;;;6.61;100.00
58877;BME280;44659;47.002;9.536;2023-11-21T07:46:11;95500.03;;;6.70;100.00
58877;BME280;44659;47.002;9.536;2023-11-21T07:48:42;95488.31;;;6.72;100.00
58877;BME280;44659;47.002;9.536;2023-11-21T07:51:09;95483.22;;;6.71;100.00
58877;BME280;44659;47.002;9.536;2023-11-21T07:53:36;95486.75;;;6.78;100.00
58877;BME280;44659;47.002;9.536;2023-11-21T07:56:06;95477.66;;;6.59;100.00
58877;BME280;44659;47.002;9.536;2023-11-21T07:58:38;95488.19;;;6.59;100.00
58877;BME280;44659;47.002;9.536;2023-11-21T08:01:04;95483.91;;;6.58;100.00
58877;BME280;44659;47.002;9.536;2023-11-21T08:03:30;95479.28;;;6.60;100.00
58877;BME280;44659;47.002;9.536;2023-11-21T08:05:59;95469.41;;;6.62;100.00
58877;BME280;44659;47.002;9.536;2023-11-21T08:08:25;95466.41;;;6.65;100.00
58877;BME280;44659;47.002;9.536;2023-11-21T08:10:51;95475.28;;;6.64;100.00
58877;BME280;44659;47.002;9.536;2023-11-21T08:13:24;95481.44;;;6.71;100.00
58877;BME280;44659;47.002;9.536;2023-11-21T08:15:50;95484.53;;;6.60;100.00
58877;BME280;44659;47.002;9.536;2023-11-21T08:18:16;95482.31;;;6.78;100.00
58877;BME280;44659;47.002;9.536;2023-11-21T08:20:43;95486.88;;;6.91;100.00
58877;BME280;44659;47.002;9.536;2023-11-21T08:23:16;95489.44;;;7.06;100.00
58877;BME280;44659;47.002;9.536;2023-11-21T08:25:45;95486.41;;;7.31;100.00
58877;BME280;44659;47.002;9.536;2023-11-21T08:28:12;95475.63;;;7.47;100.00
58877;BME280;44659;47.002;9.536;2023-11-21T08:30:41;95477.91;;;7.57;100.00
58877;BME280;44659;47.002;9.536;2023-11-21T08:33:07;95471.84;;;7.91;100.00
58877;BME280;44659;47.002;9.536;2023-11-21T08:35:39;95470.63;;;7.87;100.00
58877;BME280;44659;47.002;9.536;2023-11-21T08:38:05;95461.53;;;7.61;100.00
58877;BME280;44659;47.002;9.536;2023-11-21T08:40:30;95468.59;;;7.54;100.00
58877;BME280;44659;47.002;9.536;2023-11-21T08:42:56;95464.16;;;7.33;100.00
58877;BME280;44659;47.002;9.536;2023-11-21T08:45:24;95465.19;;;7.32;100.00
58877;BME280;44659;47.002;9.536;2023-11-21T08:47:53;95477.78;;;7.15;100.00
58877;BME280;44659;47.002;9.536;2023-11-21T08:50:20;95468.47;;;7.13;100.00
58877;BME280;44659;47.002;9.536;2023-11-21T08:52:46;95477.50;;;7.04;100.00
58877;BME280;44659;47.002;9.536;2023-11-21T08:55:12;95482.44;;;6.92;100.00
58877;BME280;44659;47.002;9.536;2023-11-21T08:57:43;95481.19;;;6.88;100.00
58877;BME280;44659;47.002;9.536;2023-11-21T09:00:10;95489.84;;;6.81;100.00
58877;BME280;44659;47.002;9.536;2023-11-21T09:02:41;95497.38;;;6.91;100.00
58877;BME280;44659;47.002;9.536;2023-11-21T09:05:08;95491.38;;;6.76;100.00
58877;BME280;44659;47.002;9.536;2023-11-21T09:07:35;95492.00;;;6.78;100.00
58877;BME280;44659;47.002;9.536;2023-11-21T09:10:02;95493.50;;;6.66;100.00
58877;BME280;44659;47.002;9.536;2023-11-21T09:12:28;95505.06;;;6.50;100.00
58877;BME280;44659;47.002;9.536;2023-11-21T09:14:54;95505.78;;;6.44;100.00
58877;BME280;44659;47.002;9.536;2023-11-21T09:17:19;95506.81;;;6.28;100.00
58877;BME280;44659;47.002;9.536;2023-11-21T09:19:45;95508.00;;;6.25;100.00
58877;BME280;44659;47.002;9.536;2023-11-21T09:22:15;95511.06;;;6.14;100.00
58877;BME280;44659;47.002;9.536;2023-11-21T09:24:42;95505.00;;;6.13;100.00
58877;BME280;44659;47.002;9.536;2023-11-21T09:27:08;95511.44;;;6.11;100.00
58877;BME280;44659;47.002;9.536;2023-11-21T09:29:38;95523.69;;;6.18;100.00
58877;BME280;44659;47.002;9.536;2023-11-21T09:32:05;95524.94;;;6.22;100.00
58877;BME280;44659;47.002;9.536;2023-11-21T09:34:33;95532.97;;;6.06;100.00
58877;BME280;44659;47.002;9.536;2023-11-21T09:37:06;95532.72;;;6.16;100.00
58877;BME280;44659;47.002;9.536;2023-11-21T09:39:33;95536.19;;;6.16;100.00
58877;BME280;44659;47.002;9.536;2023-11-21T09:42:20;95541.50;;;6.23;100.00
58877;BME280;44659;47.002;9.536;2023-11-21T09:47:22;95534.72;;;6.29;100.00
58877;BME280;44659;47.002;9.536;2023-11-21T09:49:48;95531.72;;;6.32;100.00
58877;BME280;44659;47.002;9.536;2023-11-21T09:52:27;95530.06;;;6.46;100.00
58877;BME280;44659;47.002;9.536;2023-11-21T09:54:54;95528.78;;;6.56;100.00
58877;BME280;44659;47.002;9.536;2023-11-21T09:57:24;95530.66;;;6.62;100.00
58877;BME280;44659;47.002;9.536;2023-11-21T09:59:54;95529.41;;;6.58;100.00
58877;BME280;44659;47.002;9.536;2023-11-21T10:02:26;95528.13;;;6.69;100.00
58877;BME280;44659;47.002;9.536;2023-11-21T10:04:54;95520.66;;;6.73;100.00
58877;BME280;44659;47.002;9.536;2023-11-21T10:07:21;95517.34;;;6.64;100.00
58877;BME280;44659;47.002;9.536;2023-11-21T10:09:47;95516.59;;;6.70;100.00
58877;BME280;44659;47.002;9.536;2023-11-21T10:12:16;95507.84;;;6.85;100.00
58877;BME280;44659;47.002;9.536;2023-11-21T10:14:43;95497.91;;;7.01;100.00
58877;BME280;44659;47.002;9.536;2023-11-21T10:17:12;95485.81;;;7.29;100.00
58877;BME280;44659;47.002;9.536;2023-11-21T10:19:42;95479.25;;;7.46;100.00
58877;BME280;44659;47.002;9.536;2023-11-21T10:22:09;95477.72;;;7.30;100.00
58877;BME280;44659;47.002;9.536;2023-11-21T10:24:35;95478.75;;;7.36;100.00
58877;BME280;44659;47.002;9.536;2023-11-21T10:27:04;95471.28;;;7.68;100.00
58877;BME280;44659;47.002;9.536;2023-11-21T10:29:30;95464.13;;;7.90;100.00
58877;BME280;44659;47.002;9.536;2023-11-21T10:31:56;95461.44;;;8.18;100.00
58877;BME280;44659;47.002;9.536;2023-11-21T10:34:24;95453.38;;;8.26;100.00
58877;BME280;44659;47.002;9.536;2023-11-21T10:36:50;95455.38;;;8.24;100.00
58877;BME280;44659;47.002;9.536;2023-11-21T10:39:20;95455.06;;;8.47;100.00
58877;BME280;44659;47.002;9.536;2023-11-21T10:41:49;95446.59;;;8.58;100.00
58877;BME280;44659;47.002;9.536;2023-11-21T10:44:17;95440.16;;;8.88;100.00
58877;BME280;44659;47.002;9.536;2023-11-21T10:46:52;95436.09;;;8.92;100.00
58877;BME280;44659;47.002;9.536;2023-11-21T10:49:22;95432.47;;;9.06;100.00
58877;BME280;44659;47.002;9.536;2023-11-21T10:51:51;95429.84;;;9.33;100.00
58877;BME280;44659;47.002;9.536;2023-11-21T10:54:23;95422.72;;;9.33;100.00
58877;BME280;44659;47.002;9.536;2023-11-21T10:56:50;95426.75;;;9.62;100.00
58877;BME280;44659;47.002;9.536;2023-11-21T10:59:17;95408.88;;;9.58;100.00
58877;BME280;44659;47.002;9.536;2023-11-21T11:01:47;95414.97;;;9.58;100.00
58877;BME280;44659;47.002;9.536;2023-11-21T11:04:18;95400.88;;;11.07;100.00
58877;BME280;44659;47.002;9.536;2023-11-21T11:06:45;95390.31;;;11.50;100.00
58877;BME280;44659;47.002;9.536;2023-11-21T11:09:13;95381.47;;;10.88;100.00
58877;BME280;44659;47.002;9.536;2023-11-21T11:11:42;95383.38;;;10.49;100.00
58877;BME280;44659;47.002;9.536;2023-11-21T11:14:13;95377.28;;;11.05;100.00
58877;BME280;44659;47.002;9.536;2023-11-21T11:16:40;95372.59;;;11.88;100.00
58877;BME280;44659;47.002;9.536;2023-11-21T11:19:07;95361.28;;;11.99;100.00
58877;BME280;44659;47.002;9.536;2023-11-21T11:21:46;95348.94;;;13.07;100.00
58877;BME280;44659;47.002;9.536;2023-11-21T11:36:00;95370.00;;;11.44;100.00
58877;BME280;44659;47.002;9.536;2023-11-21T11:38:32;95333.03;;;14.35;100.00
58877;BME280;44659;47.002;9.536;2023-11-21T11:41:02;95324.78;;;16.11;100.00
58877;BME280;44659;47.002;9.536;2023-11-21T11:43:32;95323.41;;;16.58;94.82
58877;BME280;44659;47.002;9.536;2023-11-21T11:46:10;95335.22;;;16.13;89.86
58877;BME280;44659;47.002;9.536;2023-11-21T11:48:39;95320.56;;;17.82;78.68
58877;BME280;44659;47.002;9.536;2023-11-21T11:51:14;95328.84;;;17.75;74.62
58877;BME280;44659;47.002;9.536;2023-11-21T11:53:44;95315.78;;;18.52;72.42
58877;BME280;44659;47.002;9.536;2023-11-21T11:56:28;95317.19;;;19.27;65.60
58877;BME280;44659;47.002;9.536;2023-11-21T11:58:57;95327.75;;;18.24;68.58
58877;BME280;44659;47.002;9.536;2023-11-21T12:01:26;95329.25;;;17.94;72.02
58877;BME280;44659;47.002;9.536;2023-11-21T12:06:36;95322.13;;;17.25;63.78
58877;BME280;44659;47.002;9.536;2023-11-21T12:09:02;95328.78;;;17.17;67.09
58877;BME280;44659;47.002;9.536;2023-11-21T12:11:32;95323.66;;;17.16;72.81
58877;BME280;44659;47.002;9.536;2023-11-21T12:13:58;95334.22;;;15.19;84.12
58877;BME280;44659;47.002;9.536;2023-11-21T12:16:25;95339.31;;;16.48;75.73
58877;BME280;44659;47.002;9.536;2023-11-21T12:18:54;95339.69;;;14.78;89.88
58877;BME280;44659;47.002;9.536;2023-11-21T12:21:20;95340.44;;;14.33;94.93
58877;BME280;44659;47.002;9.536;2023-11-21T12:23:47;95342.63;;;14.36;98.13
58877;BME280;44659;47.002;9.536;2023-11-21T12:26:14;95355.72;;;13.97;99.38
58877;BME280;44659;47.002;9.536;2023-11-21T12:28:39;95355.38;;;12.99;100.00
58877;BME280;44659;47.002;9.536;2023-11-21T12:31:06;95356.91;;;12.23;100.00
58877;BME280;44659;47.002;9.536;2023-11-21T12:33:35;95365.53;;;10.69;100.00
58877;BME280;44659;47.002;9.536;2023-11-21T12:36:01;95364.63;;;10.12;100.00
58877;BME280;44659;47.002;9.536;2023-11-21T12:38:34;95371.00;;;9.91;100.00
58877;BME280;44659;47.002;9.536;2023-11-21T12:41:03;95375.97;;;9.60;100.00
58877;BME280;44659;47.002;9.536;2023-11-21T12:43:30;95376.00;;;9.40;100.00
58877;BME280;44659;47.002;9.536;2023-11-21T12:46:09;95375.59;;;9.43;100.00
58877;BME280;44659;47.002;9.536;2023-11-21T12:48:39;95366.59;;;10.87;100.00
58877;BME280;44659;47.002;9.536;2023-11-21T12:51:09;95349.56;;;13.33;100.00
58877;BME280;44659;47.002;9.536;2023-11-21T12:53:38;95344.09;;;14.56;100.00
58877;BME280;44659;47.002;9.536;2023-11-21T12:56:09;95359.88;;;12.15;100.00
58877;BME280;44659;47.002;9.536;2023-11-21T12:58:39;95372.06;;;10.92;100.00
58877;BME280;44659;47.002;9.536;2023-11-21T13:01:07;95360.44;;;10.68;100.00
58877;BME280;44659;47.002;9.536;2023-11-21T13:03:40;95370.53;;;10.52;100.00
58877;BME280;44659;47.002;9.536;2023-11-21T13:06:08;95376.47;;;10.41;100.00
58877;BME280;44659;47.002;9.536;2023-11-21T13:08:34;95380.63;;;10.17;100.00
58877;BME280;44659;47.002;9.536;2023-11-21T13:10:59;95386.44;;;9.94;100.00
58877;BME280;44659;47.002;9.536;2023-11-21T13:13:28;95382.25;;;9.66;100.00
58877;BME280;44659;47.002;9.536;2023-11-21T13:16:01;95383.47;;;9.63;100.00
58877;BME280;44659;47.002;9.536;2023-11-21T13:18:29;95393.41;;;9.75;100.00